Time;durP1;ratioP1;P1;durP2;ratioP2;P2;SDS_P1;SDS_P2;PMS_P1;PMS_P2;Temp;Humidity;BMP_temperature;BMP_pressure;BME280_temperature;BME280_humidity;BME280_pressure;Samples;Min_cycle;Max_cycle;Signal;HPM_P1;HPM_P2
2023/03/14 00:00:12;;;;;;;3.30;1.60;;;11.30;1.00;;;;;;4951160;29;20309;-66
2023/03/14 00:02:40;;;;;;;6.50;1.70;;;11.40;1.00;;;;;;4953049;29;20645;-66
2023/03/14 00:05:08;;;;;;;7.30;1.80;;;11.30;1.00;;;;;;4953811;28;20711;-66
2023/03/14 00:07:37;;;;;;;8.80;2.90;;;11.10;1.00;;;;;;4953151;29;20191;-66
2023/03/14 00:10:07;;;;;;;7.83;5.30;;;11.20;1.00;;;;;;4953403;28;20202;-67
2023/03/14 00:12:34;;;;;;;5.73;2.03;;;11.20;1.00;;;;;;4967559;28;20270;-67
2023/03/14 00:15:03;;;;;;;2.77;1.67;;;11.20;1.00;;;;;;4952636;29;20218;-66
2023/03/14 00:17:30;;;;;;;4.47;2.17;;;11.20;1.00;;;;;;4951456;28;20203;-67
2023/03/14 00:20:03;;;;;;;8.97;1.90;;;11.20;1.00;;;;;;4951082;29;20217;-66
2023/03/14 00:22:31;;;;;;;5.00;1.70;;;11.20;1.00;;;;;;4968120;28;20289;-67
2023/03/14 00:24:58;;;;;;;8.20;3.00;;;11.30;1.00;;;;;;4952195;28;20234;-67
2023/03/14 00:27:25;;;;;;;4.73;1.73;;;11.20;1.00;;;;;;4967813;28;20225;-66
2023/03/14 00:29:52;;;;;;;6.53;2.10;;;11.30;1.00;;;;;;4943034;29;20739;-66
2023/03/14 00:32:19;;;;;;;6.57;3.37;;;11.40;1.00;;;;;;4952846;28;20690;-66
2023/03/14 00:34:46;;;;;;;6.57;2.10;;;11.30;1.00;;;;;;4966748;28;20632;-66
2023/03/14 00:37:16;;;;;;;6.27;1.93;;;11.20;1.00;;;;;;4952166;29;20214;-66
2023/03/14 00:39:43;;;;;;;3.83;2.00;;;11.20;1.00;;;;;;4952976;29;20253;-66
2023/03/14 00:42:10;;;;;;;7.40;1.90;;;11.30;1.00;;;;;;4951339;29;20215;-66
2023/03/14 00:44:37;;;;;;;8.37;2.00;;;11.30;1.00;;;;;;4950821;29;20730;-66
2023/03/14 00:47:06;;;;;;;5.73;2.07;;;11.40;1.00;;;;;;4953110;28;20195;-67
2023/03/14 00:49:33;;;;;;;3.27;1.93;;;11.20;1.00;;;;;;4950886;29;20215;-66
2023/03/14 00:52:00;;;;;;;5.70;2.33;;;11.20;1.00;;;;;;4950929;29;20266;-65
2023/03/14 00:54:27;;;;;;;5.47;2.10;;;11.20;1.00;;;;;;4950827;28;21379;-66
2023/03/14 00:56:55;;;;;;;7.60;2.20;;;11.20;1.00;;;;;;4950727;28;20210;-67
2023/03/14 00:59:22;;;;;;;5.33;1.60;;;11.20;1.00;;;;;;4952329;28;20195;-66
2023/03/14 01:01:49;;;;;;;5.23;1.93;;;11.20;1.00;;;;;;4950732;29;20211;-66
2023/03/14 01:04:16;;;;;;;4.90;1.80;;;11.40;1.00;;;;;;4949949;29;20248;-65
2023/03/14 01:06:43;;;;;;;2.67;1.57;;;11.40;1.00;;;;;;4951703;29;20207;-66
2023/03/14 01:09:10;;;;;;;3.27;1.47;;;11.50;1.00;;;;;;4950428;29;20201;-66
2023/03/14 01:11:37;;;;;;;6.47;2.00;;;11.50;1.00;;;;;;4950445;29;20202;-65
2023/03/14 01:14:05;;;;;;;7.53;1.60;;;11.60;1.00;;;;;;4951794;29;20199;-66
2023/03/14 01:16:34;;;;;;;5.00;1.80;;;11.60;1.00;;;;;;4952348;28;20671;-65
2023/03/14 01:19:02;;;;;;;5.40;1.70;;;11.70;1.00;;;;;;4952550;29;20205;-65
2023/03/14 01:21:32;;;;;;;4.60;1.50;;;11.60;1.00;;;;;;4953034;29;20253;-65
2023/03/14 01:24:00;;;;;;;6.03;1.70;;;11.70;1.00;;;;;;4950995;28;20619;-66
2023/03/14 01:26:30;;;;;;;4.00;1.73;;;11.70;1.00;;;;;;4967366;28;20188;-66
2023/03/14 01:28:58;;;;;;;7.57;1.97;;;11.70;1.00;;;;;;4950769;29;20195;-66
2023/03/14 01:31:27;;;;;;;3.17;1.60;;;11.80;1.00;;;;;;4949198;28;20270;-66
2023/03/14 01:33:54;;;;;;;9.13;1.70;;;11.80;1.00;;;;;;4949952;29;20211;-66
2023/03/14 01:36:21;;;;;;;2.73;1.33;;;11.80;1.00;;;;;;4927622;29;20207;-66
2023/03/14 01:38:48;;;;;;;4.30;1.47;;;11.90;1.00;;;;;;4949086;28;20199;-66
2023/03/14 01:41:21;;;;;;;3.83;1.60;;;12.00;1.00;;;;;;4949527;28;20761;-68
2023/03/14 01:43:50;;;;;;;6.83;2.30;;;11.90;1.00;;;;;;4941236;28;20203;-66
2023/03/14 01:46:25;;;;;;;10.27;2.63;;;11.70;1.00;;;;;;4946672;28;20202;-66
2023/03/14 01:49:11;;;;;;;10.57;2.57;;;11.40;1.00;;;;;;4949267;28;20190;-65
2023/03/14 01:51:51;;;;;;;4.17;2.43;;;10.80;1.00;;;;;;4965254;28;20203;-64
2023/03/14 01:54:25;;;;;;;4.13;1.70;;;10.20;1.00;;;;;;4948975;28;20234;-70
2023/03/14 01:56:58;;;;;;;6.33;2.33;;;9.90;1.00;;;;;;4949141;29;20202;-67
2023/03/14 01:59:26;;;;;;;6.00;2.00;;;9.70;1.00;;;;;;4965186;28;20195;-71
2023/03/14 02:01:55;;;;;;;8.23;3.47;;;9.50;99.90;;;;;;4947008;28;20294;-66
2023/03/14 02:04:25;;;;;;;6.00;2.03;;;9.50;99.90;;;;;;4964290;28;20222;-67
2023/03/14 02:07:00;;;;;;;5.80;1.97;;;9.50;1.00;;;;;;4964049;28;20360;-66
2023/03/14 02:09:31;;;;;;;5.43;1.53;;;9.50;1.00;;;;;;4949787;29;20228;-67
2023/03/14 02:12:00;;;;;;;5.73;1.47;;;9.60;99.90;;;;;;4949476;28;20213;-66
2023/03/14 02:14:47;;;;;;;6.07;2.00;;;9.70;99.90;;;;;;4948924;28;20191;-68
2023/03/14 02:17:28;;;;;;;3.70;1.47;;;9.70;99.90;;;;;;4948159;29;20670;-67
2023/03/14 02:20:14;;;;;;;4.33;1.67;;;9.70;99.90;;;;;;4949569;28;20301;-67
2023/03/14 02:22:46;;;;;;;7.73;2.10;;;9.70;99.90;;;;;;4949334;29;20191;-67
2023/03/14 02:25:50;;;;;;;5.30;1.20;;;9.70;99.90;;;;;;4947637;28;20191;-67
2023/03/14 02:28:18;;;;;;;7.23;2.10;;;9.70;99.90;;;;;;4949360;29;20191;-65
2023/03/14 02:30:50;;;;;;;7.70;2.20;;;9.70;99.90;;;;;;4949696;29;20210;-67
2023/03/14 02:33:20;;;;;;;4.50;1.87;;;9.50;99.90;;;;;;4949858;29;20206;-68
2023/03/14 02:35:58;;;;;;;4.07;1.97;;;9.40;99.90;;;;;;4940750;28;20233;-68
2023/03/14 02:38:47;;;;;;;3.50;1.50;;;9.30;99.90;;;;;;4947130;28;20199;-68
2023/03/14 02:41:15;;;;;;;5.53;2.10;;;9.20;99.90;;;;;;4942054;28;20211;-67
2023/03/14 02:43:48;;;;;;;5.87;1.77;;;9.30;99.90;;;;;;4947670;28;20217;-66
2023/03/14 02:46:20;;;;;;;7.50;3.30;;;9.30;99.90;;;;;;4946475;28;20329;-64
2023/03/14 02:48:48;;;;;;;5.33;2.10;;;9.30;99.90;;;;;;4948765;28;20789;-64
2023/03/14 02:51:16;;;;;;;4.73;2.43;;;9.30;99.90;;;;;;4948610;29;20715;-64
2023/03/14 02:53:46;;;;;;;5.13;1.93;;;9.30;99.90;;;;;;4939058;28;20674;-65
2023/03/14 02:56:14;;;;;;;6.53;1.60;;;9.40;99.90;;;;;;4965960;28;20211;-64
2023/03/14 02:58:41;;;;;;;8.90;3.27;;;9.40;99.90;;;;;;4949756;29;20216;-65
2023/03/14 03:01:19;;;;;;;9.60;3.93;;;9.50;99.90;;;;;;4949124;28;20639;-65
2023/03/14 03:03:46;;;;;;;7.93;3.20;;;9.50;99.90;;;;;;4949404;29;20230;-66
2023/03/14 03:06:13;;;;;;;6.90;2.73;;;9.50;99.90;;;;;;4941085;28;20203;-64
2023/03/14 03:08:40;;;;;;;4.23;1.80;;;9.50;99.90;;;;;;4951071;28;20591;-64
2023/03/14 03:11:07;;;;;;;4.97;2.10;;;9.60;99.90;;;;;;4947792;28;20286;-65
2023/03/14 03:13:35;;;;;;;5.70;1.83;;;9.60;99.90;;;;;;4948084;28;20665;-66
2023/03/14 03:16:04;;;;;;;7.43;2.30;;;9.70;99.90;;;;;;4939945;28;20289;-66
2023/03/14 03:18:33;;;;;;;6.90;1.70;;;9.70;99.90;;;;;;4942223;28;20196;-64
2023/03/14 03:21:05;;;;;;;3.73;2.27;;;9.70;99.90;;;;;;4949041;28;20211;-70
2023/03/14 03:23:32;;;;;;;5.63;2.33;;;9.70;99.90;;;;;;4950432;28;20199;-67
2023/03/14 03:25:59;;;;;;;6.50;2.03;;;9.70;99.90;;;;;;4959678;28;20290;-68
2023/03/14 03:28:26;;;;;;;6.87;2.67;;;9.80;99.90;;;;;;4945045;28;20309;-68
2023/03/14 03:30:54;;;;;;;5.57;2.77;;;9.80;99.90;;;;;;4952136;29;20261;-68
2023/03/14 03:33:23;;;;;;;8.07;3.40;;;9.80;99.90;;;;;;4951215;28;20206;-68
2023/03/14 03:35:51;;;;;;;9.73;2.30;;;9.80;99.90;;;;;;4953151;29;20297;-68
2023/03/14 03:38:26;;;;;;;6.63;1.90;;;9.70;99.90;;;;;;4953595;29;20811;-69
2023/03/14 03:40:54;;;;;;;4.90;1.80;;;9.80;99.90;;;;;;4953276;29;20286;-69
2023/03/14 03:43:24;;;;;;;5.90;1.90;;;9.70;99.90;;;;;;4968904;28;20194;-71
2023/03/14 03:45:51;;;;;;;7.67;2.30;;;9.70;99.90;;;;;;4954133;28;20564;-69
2023/03/14 03:48:19;;;;;;;9.27;2.23;;;9.70;99.90;;;;;;4951018;29;20203;-70
2023/03/14 03:50:47;;;;;;;4.93;1.53;;;9.70;99.90;;;;;;4953120;29;20203;-69
2023/03/14 03:53:18;;;;;;;7.90;2.23;;;9.70;99.90;;;;;;4949906;28;20211;-70
2023/03/14 03:55:59;;;;;;;5.97;1.80;;;9.80;99.90;;;;;;4952283;29;20215;-70
2023/03/14 03:58:26;;;;;;;7.77;2.07;;;9.80;85.30;;;;;;4952202;28;20241;-69
2023/03/14 04:00:54;;;;;;;6.50;1.73;;;9.80;81.70;;;;;;4951600;28;20226;-69
2023/03/14 04:03:21;;;;;;;9.03;2.17;;;9.80;79.00;;;;;;4943711;29;20231;-70
2023/03/14 04:06:02;;;;;;;7.23;1.80;;;9.80;66.40;;;;;;4951765;29;20199;-70
2023/03/14 04:08:31;;;;;;;6.20;1.60;;;9.80;91.80;;;;;;4967999;28;20694;-69
2023/03/14 04:11:00;;;;;;;5.40;1.57;;;9.70;67.80;;;;;;4952758;28;20199;-69
2023/03/14 04:13:45;;;;;;;5.07;1.90;;;9.80;57.10;;;;;;4949953;28;20684;-70
2023/03/14 04:16:17;;;;;;;5.93;1.77;;;9.70;68.50;;;;;;4951099;28;20203;-70
2023/03/14 04:18:44;;;;;;;8.63;1.70;;;9.70;93.00;;;;;;4944516;28;20238;-69
2023/03/14 04:21:11;;;;;;;5.90;1.97;;;9.60;75.40;;;;;;4950224;28;20306;-71
2023/03/14 04:23:47;;;;;;;8.90;2.67;;;9.60;79.10;;;;;;4949359;28;20774;-69
2023/03/14 04:26:15;;;;;;;3.10;1.90;;;9.60;80.50;;;;;;4935276;29;20211;-71
2023/03/14 04:28:43;;;;;;;8.23;3.40;;;9.60;76.80;;;;;;4950861;29;20659;-71
2023/03/14 04:31:12;;;;;;;6.33;1.90;;;9.60;86.40;;;;;;4950859;29;20211;-71
2023/03/14 04:33:40;;;;;;;9.87;1.97;;;9.70;48.70;;;;;;4962175;28;20634;-72
2023/03/14 04:36:11;;;;;;;8.07;2.27;;;9.80;32.20;;;;;;4951480;28;20199;-76
2023/03/14 04:38:39;;;;;;;5.57;1.50;;;9.90;16.60;;;;;;4943877;28;20218;-70
2023/03/14 04:41:07;;;;;;;8.07;1.73;;;9.90;18.10;;;;;;4950514;29;20222;-70
2023/03/14 04:43:35;;;;;;;5.03;1.60;;;9.90;24.50;;;;;;4928440;29;20210;-67
2023/03/14 04:46:07;;;;;;;7.60;2.60;;;9.90;24.70;;;;;;4951282;28;20769;-67
2023/03/14 04:48:34;;;;;;;9.37;1.93;;;9.90;39.40;;;;;;4948383;28;20199;-68
2023/03/14 04:51:01;;;;;;;5.40;1.80;;;9.90;43.70;;;;;;4959253;28;20310;-68
2023/03/14 04:53:34;;;;;;;4.57;2.20;;;9.90;34.90;;;;;;4952048;29;20187;-70
2023/03/14 04:56:04;;;;;;;5.70;2.60;;;9.90;52.10;;;;;;4967775;28;20269;-67
2023/03/14 04:58:37;;;;;;;3.27;1.67;;;9.80;22.10;;;;;;4942592;28;20203;-71
2023/03/14 05:01:06;;;;;;;2.77;1.27;;;9.90;17.70;;;;;;4967006;28;20214;-68
2023/03/14 05:04:01;;;;;;;3.57;1.23;;;9.80;7.90;;;;;;4948830;29;20238;-67
2023/03/14 05:06:47;;;;;;;4.40;1.33;;;9.80;9.20;;;;;;4951174;29;20208;-67
2023/03/14 05:09:40;;;;;;;3.80;1.10;;;9.70;31.30;;;;;;4951673;28;20552;-65
2023/03/14 05:12:22;;;;;;;5.73;1.40;;;9.60;52.90;;;;;;4951677;29;20214;-65
2023/03/14 05:15:21;;;;;;;4.03;2.77;;;9.50;99.90;;;;;;4952736;28;20218;-66
2023/03/14 05:18:08;;;;;;;1.73;1.20;;;9.40;99.90;;;;;;4963918;28;20215;-72
2023/03/14 05:21:04;;;;;;;1.67;1.03;;;9.30;99.90;;;;;;4967541;28;20245;-70
2023/03/14 05:23:46;;;;;;;5.87;1.30;;;9.20;99.90;;;;;;4948960;28;20582;-70
2023/03/14 05:26:27;;;;;;;1.47;1.00;;;9.10;99.90;;;;;;4950384;28;20197;-70
2023/03/14 05:29:20;;;;;;;3.20;1.03;;;9.10;99.90;;;;;;4944408;28;20211;-71
2023/03/14 05:32:03;;;;;;;2.10;0.90;;;8.90;1.00;;;;;;4948854;28;20217;-71
2023/03/14 05:34:48;;;;;;;2.50;0.93;;;9.00;1.00;;;;;;4961795;28;20197;-71
2023/03/14 05:37:44;;;;;;;3.63;1.50;;;8.90;1.00;;;;;;4946649;28;20596;-72
2023/03/14 05:40:30;;;;;;;1.53;1.07;;;8.90;1.00;;;;;;4949480;28;20205;-71
2023/03/14 05:43:16;;;;;;;2.47;1.00;;;8.80;82.80;;;;;;4963838;28;21098;-71
2023/03/14 05:45:53;;;;;;;2.47;1.10;;;8.70;1.00;;;;;;4949404;28;20234;-71
2023/03/14 05:48:26;;;;;;;1.27;1.00;;;8.60;1.00;;;;;;4943983;28;20274;-70
2023/03/14 05:51:08;;;;;;;1.07;0.90;;;8.60;41.60;;;;;;4950895;28;20194;-70
2023/03/14 05:53:52;;;;;;;1.67;0.87;;;8.50;13.00;;;;;;4949299;28;20206;-71
2023/03/14 05:56:38;;;;;;;2.60;0.90;;;8.50;99.90;;;;;;4950875;28;20213;-70
2023/03/14 05:59:14;;;;;;;2.83;1.03;;;8.50;1.00;;;;;;4951290;28;20210;-71
2023/03/14 06:01:59;;;;;;;1.43;0.90;;;8.50;99.90;;;;;;4948123;28;20218;-70
2023/03/14 06:04:29;;;;;;;2.73;0.90;;;8.40;99.90;;;;;;4962364;28;20230;-70
2023/03/14 06:06:59;;;;;;;1.77;0.80;;;8.40;99.90;;;;;;4946392;29;20207;-70
2023/03/14 06:09:26;;;;;;;0.60;0.60;;;8.40;58.80;;;;;;4947415;28;20884;-70
2023/03/14 06:11:56;;;;;;;1.80;1.10;;;8.40;1.00;;;;;;4933480;28;20217;-70
2023/03/14 06:14:23;;;;;;;4.47;1.13;;;8.40;1.00;;;;;;4931757;29;20943;-71
2023/03/14 06:16:52;;;;;;;2.67;2.47;;;8.40;1.00;;;;;;4949416;29;20612;-69
2023/03/14 06:19:21;;;;;;;2.57;1.50;;;8.40;1.00;;;;;;4944494;28;20634;-69
2023/03/14 06:21:48;;;;;;;6.77;4.50;;;8.40;1.00;;;;;;4965179;28;20248;-69
2023/03/14 06:24:15;;;;;;;3.10;2.53;;;8.30;1.00;;;;;;4947631;28;20199;-69
2023/03/14 06:26:46;;;;;;;1.60;1.10;;;8.30;1.00;;;;;;4949744;28;20190;-67
2023/03/14 06:29:14;;;;;;;4.13;2.40;;;8.30;1.00;;;;;;4962898;28;20209;-70
2023/03/14 06:31:41;;;;;;;2.00;1.80;;;8.40;23.30;;;;;;4964526;28;20637;-70
2023/03/14 06:34:09;;;;;;;2.00;1.80;;;8.40;72.10;;;;;;4946069;28;20679;-70
2023/03/14 06:36:36;;;;;;;1.93;1.30;;;8.40;91.50;;;;;;4963452;28;20211;-70
2023/03/14 06:39:03;;;;;;;2.10;0.87;;;8.50;99.90;;;;;;4947177;28;20273;-70
2023/03/14 06:41:33;;;;;;;2.07;0.87;;;8.40;99.90;;;;;;4947645;28;20218;-70
2023/03/14 06:44:00;;;;;;;1.67;1.40;;;8.50;99.90;;;;;;4948279;28;20636;-70
2023/03/14 06:46:27;;;;;;;1.53;1.20;;;8.50;99.90;;;;;;4941953;28;20226;-72
2023/03/14 06:48:54;;;;;;;2.73;1.10;;;8.60;99.90;;;;;;4945720;28;20314;-69
2023/03/14 06:51:22;;;;;;;4.53;0.93;;;8.60;63.60;;;;;;4953199;28;20274;-71
2023/03/14 06:53:49;;;;;;;2.17;1.13;;;8.70;99.90;;;;;;4941336;28;20392;-70
2023/03/14 06:56:19;;;;;;;2.13;1.30;;;8.80;99.90;;;;;;4947340;28;20203;-70
2023/03/14 06:58:47;;;;;;;4.03;1.43;;;8.90;1.00;;;;;;4948530;28;20199;-70
2023/03/14 07:01:24;;;;;;;2.33;1.47;;;9.00;1.00;;;;;;4947761;28;20293;-70
2023/03/14 07:03:53;;;;;;;3.80;1.40;;;9.20;1.00;;;;;;4949434;28;20969;-70
2023/03/14 07:06:21;;;;;;;4.17;1.70;;;9.10;1.00;;;;;;4952514;29;20205;-69
2023/03/14 07:08:49;;;;;;;4.80;1.40;;;9.20;1.00;;;;;;4948845;28;20187;-70
2023/03/14 07:11:17;;;;;;;4.90;1.40;;;9.20;1.00;;;;;;4947062;29;20210;-70
2023/03/14 07:13:44;;;;;;;2.60;1.57;;;9.20;1.00;;;;;;4944370;28;20210;-70
2023/03/14 07:16:11;;;;;;;3.17;1.70;;;9.30;1.00;;;;;;4948708;28;20195;-68
2023/03/14 07:18:38;;;;;;;5.47;1.67;;;9.40;1.00;;;;;;4948787;28;20297;-69
2023/03/14 07:21:08;;;;;;;5.70;1.70;;;9.40;99.90;;;;;;4949175;28;20254;-69
2023/03/14 07:23:36;;;;;;;4.43;1.97;;;9.40;99.90;;;;;;4965808;28;20203;-69
2023/03/14 07:26:04;;;;;;;4.37;1.60;;;9.60;99.90;;;;;;4949915;28;20880;-69
2023/03/14 07:28:32;;;;;;;2.97;1.47;;;9.70;99.90;;;;;;4944270;28;20206;-71
2023/03/14 07:31:13;;;;;;;3.97;1.77;;;9.70;99.90;;;;;;4951199;28;20230;-70
2023/03/14 07:33:40;;;;;;;5.23;1.87;;;9.60;99.90;;;;;;4946240;28;20670;-69
2023/03/14 07:36:08;;;;;;;7.43;1.90;;;9.70;99.90;;;;;;4967222;28;20214;-68
2023/03/14 07:38:35;;;;;;;4.00;2.10;;;9.70;99.90;;;;;;4926420;29;20203;-71
2023/03/14 07:41:11;;;;;;;3.23;2.00;;;9.80;7.00;;;;;;4950667;28;20198;-70
2023/03/14 07:43:49;;;;;;;4.67;2.50;;;10.00;56.80;;;;;;4966013;28;20601;-69
2023/03/14 07:46:17;;;;;;;2.73;1.73;;;10.00;1.00;;;;;;4965939;28;20207;-69
2023/03/14 07:48:44;;;;;;;3.17;1.50;;;10.00;1.00;;;;;;4950710;28;20612;-70
2023/03/14 07:51:11;;;;;;;2.60;1.63;;;10.20;1.00;;;;;;4950663;29;20222;-70
2023/03/14 07:53:39;;;;;;;4.73;1.87;;;11.00;1.00;;;;;;4966593;28;20242;-68
2023/03/14 07:56:06;;;;;;;4.13;1.50;;;11.10;99.90;;;;;;4950769;28;20203;-69
2023/03/14 07:58:33;;;;;;;1.97;1.20;;;11.00;99.90;;;;;;4964809;28;20191;-68
2023/03/14 08:01:00;;;;;;;2.33;1.60;;;10.80;99.90;;;;;;4950304;28;20726;-70
2023/03/14 08:03:27;;;;;;;2.73;1.30;;;10.80;99.90;;;;;;4950012;28;20239;-69
2023/03/14 08:05:54;;;;;;;1.77;1.50;;;10.60;99.90;;;;;;4949170;28;20203;-69
2023/03/14 08:08:21;;;;;;;4.00;1.40;;;10.60;99.90;;;;;;4948604;28;20207;-70
2023/03/14 08:10:48;;;;;;;2.23;1.50;;;10.60;99.90;;;;;;4964619;28;20203;-69
2023/03/14 08:13:15;;;;;;;3.30;1.80;;;10.60;99.90;;;;;;4948690;28;20253;-69
2023/03/14 08:15:42;;;;;;;1.90;1.30;;;10.60;99.90;;;;;;4945312;28;20217;-69
2023/03/14 08:18:09;;;;;;;1.90;1.50;;;10.70;99.90;;;;;;4949710;28;20214;-70
2023/03/14 08:20:37;;;;;;;2.27;1.20;;;10.80;99.90;;;;;;4965355;28;20717;-69
2023/03/14 08:23:04;;;;;;;2.50;1.53;;;10.70;99.90;;;;;;4947373;28;20250;-69
2023/03/14 08:25:31;;;;;;;2.77;1.20;;;10.70;99.90;;;;;;4944276;28;20628;-69
2023/03/14 08:27:59;;;;;;;1.30;1.20;;;10.70;99.90;;;;;;4966535;28;20217;-70
2023/03/14 08:30:26;;;;;;;1.60;1.30;;;10.80;99.90;;;;;;4950016;28;20199;-69
2023/03/14 08:32:53;;;;;;;1.50;1.40;;;11.00;99.90;;;;;;4950130;29;20779;-69
2023/03/14 08:35:20;;;;;;;2.87;1.67;;;11.00;99.90;;;;;;4950957;28;20296;-69
2023/03/14 08:37:47;;;;;;;1.40;1.30;;;10.90;99.90;;;;;;4964763;28;20707;-70
2023/03/14 08:40:15;;;;;;;1.97;1.50;;;10.80;99.90;;;;;;4964517;28;20581;-69
2023/03/14 08:42:42;;;;;;;2.17;1.63;;;10.90;99.90;;;;;;4949686;28;20238;-69
2023/03/14 08:45:12;;;;;;;3.23;1.40;;;10.90;99.90;;;;;;4950026;28;20188;-68
2023/03/14 08:47:39;;;;;;;2.37;1.73;;;10.80;99.90;;;;;;4964749;28;20689;-69
2023/03/14 08:50:07;;;;;;;1.83;1.40;;;10.80;1.00;;;;;;4950542;28;20199;-71
2023/03/14 08:52:34;;;;;;;4.53;1.90;;;10.90;1.00;;;;;;4963952;28;20698;-71
2023/03/14 08:55:01;;;;;;;1.63;1.30;;;11.00;99.90;;;;;;4944072;28;20301;-71
2023/03/14 08:57:28;;;;;;;3.10;1.73;;;11.10;99.90;;;;;;4945440;28;20277;-70
2023/03/14 08:59:56;;;;;;;2.10;1.30;;;11.40;99.90;;;;;;4947482;29;20690;-70
2023/03/14 09:02:25;;;;;;;3.20;1.47;;;11.60;99.90;;;;;;4947255;28;20226;-71
2023/03/14 09:04:53;;;;;;;1.80;1.40;;;11.50;99.90;;;;;;4959304;28;20750;-69
2023/03/14 09:07:20;;;;;;;2.20;1.53;;;11.40;99.90;;;;;;4948838;29;20191;-69
2023/03/14 09:09:47;;;;;;;2.17;1.90;;;11.30;99.90;;;;;;4946215;29;20231;-69
2023/03/14 09:12:14;;;;;;;2.27;1.57;;;11.30;99.90;;;;;;4948755;28;20746;-71
2023/03/14 09:14:41;;;;;;;3.00;1.60;;;11.30;99.90;;;;;;4946531;28;20202;-69
2023/03/14 09:17:08;;;;;;;2.00;1.70;;;11.10;99.90;;;;;;4943173;28;20235;-70
2023/03/14 09:19:35;;;;;;;3.00;1.90;;;10.90;1.00;;;;;;4945353;28;20226;-71
2023/03/14 09:22:02;;;;;;;2.10;1.90;;;11.00;1.00;;;;;;4946123;28;20634;-69
2023/03/14 09:24:29;;;;;;;2.00;1.80;;;10.90;1.00;;;;;;4949367;28;20218;-71
2023/03/14 09:26:57;;;;;;;2.17;1.90;;;10.90;1.00;;;;;;4949148;28;20225;-68
2023/03/14 09:29:24;;;;;;;3.60;1.90;;;11.00;1.00;;;;;;4941413;28;20683;-71
2023/03/14 09:31:51;;;;;;;2.80;1.67;;;10.90;1.00;;;;;;4963253;28;20199;-71
2023/03/14 09:34:18;;;;;;;4.80;2.10;;;11.00;1.00;;;;;;4947430;28;20203;-71
2023/03/14 09:36:45;;;;;;;1.63;1.53;;;11.40;1.00;;;;;;4948621;29;20305;-70
2023/03/14 09:39:12;;;;;;;1.50;1.40;;;11.90;99.90;;;;;;4949530;29;20199;-72
2023/03/14 09:41:43;;;;;;;1.63;1.47;;;13.60;99.90;;;;;;4947860;28;20221;-70
2023/03/14 09:44:45;;;;;;;2.53;1.40;;;13.20;25.10;;;;;;4948788;29;20203;-72
2023/03/14 09:47:14;;;;;;;3.27;1.70;;;13.00;61.20;;;;;;4928489;29;20727;-71
2023/03/14 09:49:41;;;;;;;2.87;1.50;;;12.70;92.70;;;;;;4947368;29;20647;-70
2023/03/14 09:52:16;;;;;;;2.30;1.90;;;12.60;99.90;;;;;;4941973;28;20618;-71
2023/03/14 09:54:52;;;;;;;5.70;1.80;;;12.20;99.90;;;;;;4947588;28;20615;-71
2023/03/14 09:57:23;;;;;;;2.70;1.73;;;12.20;99.90;;;;;;4947718;29;20626;-71
2023/03/14 09:59:54;;;;;;;4.40;2.10;;;11.90;99.90;;;;;;4949311;29;20234;-71
2023/03/14 10:02:30;;;;;;;3.10;1.97;;;11.60;99.90;;;;;;4961659;28;20218;-70
2023/03/14 10:04:57;;;;;;;2.83;1.57;;;11.50;99.90;;;;;;4943547;28;20234;-71
2023/03/14 10:07:30;;;;;;;3.00;1.37;;;11.30;99.90;;;;;;4962569;28;20388;-70
2023/03/14 10:09:58;;;;;;;1.80;1.50;;;11.20;1.00;;;;;;4941824;28;20223;-70
2023/03/14 10:12:36;;;;;;;4.63;1.80;;;11.10;1.00;;;;;;4946746;29;20194;-70
2023/03/14 10:15:09;;;;;;;1.70;1.47;;;10.70;99.90;;;;;;4945474;28;20211;-69
2023/03/14 10:17:54;;;;;;;2.30;1.60;;;10.40;1.00;;;;;;4960562;28;20683;-70
2023/03/14 10:20:35;;;;;;;3.03;1.40;;;10.30;1.00;;;;;;4947643;28;20223;-70
2023/03/14 10:23:12;;;;;;;3.40;1.60;;;10.20;99.90;;;;;;4946390;29;20226;-69
2023/03/14 10:26:01;;;;;;;1.40;1.30;;;10.10;53.40;;;;;;4947355;29;20198;-68
2023/03/14 10:28:33;;;;;;;1.43;0.90;;;10.00;13.50;;;;;;4948058;29;20225;-69
2023/03/14 10:31:00;;;;;;;1.17;0.90;;;10.00;1.00;;;;;;4949428;28;20643;-69
2023/03/14 10:33:31;;;;;;;2.20;1.00;;;10.00;1.00;;;;;;4962029;28;20214;-69
2023/03/14 10:36:00;;;;;;;1.27;0.80;;;10.10;1.00;;;;;;4948207;29;20536;-70
2023/03/14 10:38:35;;;;;;;1.93;1.20;;;9.90;1.00;;;;;;4962221;28;20573;-71
2023/03/14 10:41:19;;;;;;;2.07;0.70;;;9.80;1.00;;;;;;4948462;29;20194;-70
2023/03/14 10:43:51;;;;;;;1.83;0.80;;;9.80;1.00;;;;;;4945936;28;20512;-69
2023/03/14 10:46:19;;;;;;;0.90;0.73;;;9.60;99.90;;;;;;4949486;29;20231;-69
2023/03/14 10:49:06;;;;;;;2.33;1.10;;;9.80;99.90;;;;;;4949275;28;20582;-69
2023/03/14 10:51:33;;;;;;;0.77;0.77;;;9.80;99.90;;;;;;4940711;28;20204;-71
2023/03/14 10:54:00;;;;;;;1.33;0.80;;;9.70;99.90;;;;;;4947806;28;20207;-71
2023/03/14 10:56:34;;;;;;;1.43;0.80;;;9.50;99.90;;;;;;4962299;28;20202;-69
2023/03/14 10:59:03;;;;;;;0.80;0.80;;;9.40;99.90;;;;;;4946248;29;20250;-72
2023/03/14 11:01:43;;;;;;;1.10;1.00;;;9.50;99.90;;;;;;4946631;29;20226;-71
2023/03/14 11:04:35;;;;;;;0.93;0.93;;;9.50;99.90;;;;;;4941583;29;20589;-70
2023/03/14 11:07:27;;;;;;;1.50;1.20;;;9.20;99.50;;;;;;4941812;29;20568;-73
2023/03/14 11:09:56;;;;;;;2.27;0.83;;;8.80;70.60;;;;;;4963081;28;20301;-70
2023/03/14 11:12:47;;;;;;;0.80;0.80;;;8.60;31.00;;;;;;4945985;29;20687;-74
2023/03/14 11:15:42;;;;;;;1.50;0.93;;;8.50;55.20;;;;;;4946228;29;20226;-70
2023/03/14 11:18:21;;;;;;;1.50;0.90;;;8.40;75.20;;;;;;4948749;28;20636;-68
2023/03/14 11:21:22;;;;;;;1.50;0.87;;;8.30;12.40;;;;;;4948978;29;20675;-71
2023/03/14 11:24:10;;;;;;;0.80;0.80;;;8.30;1.00;;;;;;4945916;28;20598;-68
2023/03/14 11:26:50;;;;;;;1.20;1.10;;;8.20;1.00;;;;;;4958071;28;20204;-69
2023/03/14 11:29:40;;;;;;;1.30;1.00;;;8.00;1.00;;;;;;4957348;28;20212;-68
2023/03/14 11:32:13;;;;;;;1.43;1.13;;;8.00;1.00;;;;;;4947082;28;20290;-70
2023/03/14 11:34:52;;;;;;;1.43;1.20;;;8.30;1.00;;;;;;4962116;28;20204;-72
2023/03/14 11:37:44;;;;;;;1.73;1.40;;;8.20;1.00;;;;;;4962674;28;20203;-69
2023/03/14 11:40:18;;;;;;;1.53;1.17;;;7.90;1.00;;;;;;4941332;29;20738;-70
2023/03/14 11:42:54;;;;;;;1.27;1.10;;;7.90;1.00;;;;;;4962140;28;20223;-71
2023/03/14 11:45:37;;;;;;;4.13;1.30;;;8.00;1.00;;;;;;4950543;29;20255;-69
2023/03/14 11:48:39;;;;;;;2.87;1.10;;;7.90;1.00;;;;;;4950707;29;20214;-70
2023/03/14 11:51:28;;;;;;;1.57;0.97;;;7.70;1.00;;;;;;4945849;29;20210;-70
2023/03/14 11:54:22;;;;;;;4.20;1.20;;;7.30;1.00;;;;;;4946176;29;20222;-68
2023/03/14 11:57:04;;;;;;;3.07;1.10;;;7.40;1.00;;;;;;4965162;28;20210;-72
2023/03/14 11:59:50;;;;;;;3.00;1.17;;;8.00;1.00;;;;;;4950936;28;20202;-73
2023/03/14 12:02:23;;;;;;;2.00;1.00;;;8.40;1.00;;;;;;4966279;28;20666;-71
2023/03/14 12:05:14;;;;;;;3.20;1.13;;;8.50;1.00;;;;;;4948837;28;20310;-71
2023/03/14 12:07:44;;;;;;;2.53;1.30;;;8.70;1.00;;;;;;4951255;29;20674;-68
2023/03/14 12:10:11;;;;;;;2.00;1.20;;;8.70;1.00;;;;;;4950166;29;20664;-70
2023/03/14 12:12:39;;;;;;;3.27;1.17;;;8.60;1.00;;;;;;4936435;29;20634;-70
2023/03/14 12:15:17;;;;;;;2.10;1.07;;;8.40;1.00;;;;;;4950727;29;20741;-69
2023/03/14 12:17:46;;;;;;;5.33;1.60;;;8.00;1.00;;;;;;4951742;28;20265;-68
2023/03/14 12:20:22;;;;;;;5.27;1.27;;;7.90;1.00;;;;;;4965334;28;20717;-70
2023/03/14 12:23:11;;;;;;;1.67;1.00;;;7.80;1.00;;;;;;4951061;29;20304;-70
2023/03/14 12:25:38;;;;;;;3.07;1.30;;;7.60;1.00;;;;;;4950636;28;20202;-68
2023/03/14 12:28:31;;;;;;;2.83;1.40;;;7.60;1.00;;;;;;4965012;28;20191;-70
2023/03/14 12:31:31;;;;;;;4.13;1.53;;;7.60;1.00;;;;;;4964093;28;20211;-70
2023/03/14 12:34:03;;;;;;;7.97;2.60;;;8.00;1.00;;;;;;4940965;28;20242;-68
2023/03/14 12:36:51;;;;;;;9.17;2.67;;;8.70;1.00;;;;;;4965317;28;20536;-69
2023/03/14 12:39:49;;;;;;;3.73;1.90;;;9.10;1.00;;;;;;4965040;28;20211;-71
2023/03/14 12:42:42;;;;;;;6.07;2.30;;;9.10;1.00;;;;;;4963741;28;20231;-69
2023/03/14 12:45:21;;;;;;;6.80;3.23;;;9.20;1.00;;;;;;4943951;28;20757;-70
2023/03/14 12:47:53;;;;;;;5.23;2.70;;;9.20;1.00;;;;;;4964033;28;20270;-69
2023/03/14 12:50:25;;;;;;;7.03;2.50;;;9.20;1.00;;;;;;4946754;29;20207;-69
2023/03/14 12:53:18;;;;;;;5.57;2.43;;;9.40;1.00;;;;;;4949653;29;20241;-69
2023/03/14 12:56:10;;;;;;;6.90;2.20;;;9.50;1.00;;;;;;4950106;28;20667;-68
2023/03/14 12:58:40;;;;;;;7.47;2.17;;;9.50;1.00;;;;;;4961892;28;20427;-69
2023/03/14 13:01:19;;;;;;;5.90;2.20;;;9.50;1.00;;;;;;4963578;28;20238;-70
2023/03/14 13:03:55;;;;;;;10.13;2.33;;;9.30;1.00;;;;;;4965711;28;20297;-69
2023/03/14 13:06:44;;;;;;;6.77;1.80;;;9.00;1.00;;;;;;4946517;28;20199;-70
2023/03/14 13:09:29;;;;;;;5.70;1.83;;;8.80;1.00;;;;;;4947188;28;20316;-71
2023/03/14 13:12:02;;;;;;;5.40;1.87;;;8.70;1.00;;;;;;4963114;28;20671;-70
2023/03/14 13:14:30;;;;;;;9.57;2.03;;;8.60;1.00;;;;;;4947999;29;20217;-70
2023/03/14 13:17:02;;;;;;;6.90;1.93;;;8.80;1.00;;;;;;4950843;28;20592;-70
2023/03/14 13:20:04;;;;;;;7.43;2.17;;;8.70;1.00;;;;;;4947317;28;20294;-71
2023/03/14 13:22:34;;;;;;;7.37;2.03;;;8.90;1.00;;;;;;4948451;29;20661;-70
2023/03/14 13:25:09;;;;;;;11.03;2.73;;;8.90;1.00;;;;;;4948610;28;20198;-70
2023/03/14 13:27:37;;;;;;;19.27;3.50;;;9.30;1.00;;;;;;4944256;29;20666;-71